Airfield :
LOGIN :

Register | Disclaimer

   EN    FR    IT 

 










Legend :    VFR   Marginal VFR   IFR   Intensive IFR   Very Intensive IFR
Visi :
Ceiling :
>= 8 km
>= 3000ft
5 to 8 km
1000 to 3000 ft
1500m to 5 km
500 to 1000 ft
800 to 1500m
200 to 500 ft
< 800m
< 200 ft
Symbols :   Thunderstorms  Fog  Heavy snow  Heavy precipitations  Wind > 20 kt
SIGMETs :     Misc.  Thunderstorms  Icing  Turbulence  Mountain Waves  Volcanic Ashes






- Airport Elevation : 25 ft
- IATA code : LKL


ENNA - Banak

CURRENT METAR :
  • 141120Z 19011KT 160V220 CAVOK 17/09 Q1013 RMK WIND 1800FT 15016KT

EXPIRED METARs :
  • 141050Z 18009KT 140V220 9999 VCSH SCT050 BKN080 17/08 Q1013 RMK WIND 1800FT 14016KT
  • 141020Z 19010KT 9999 -RA FEW030 BKN051 15/09 Q1013 RMK WIND 1800FT 16013KT
  • 140950Z 16012KT 130V190 9999 BKN053 17/08 Q1013 RMK WIND 1800FT 15014KT
  • 140920Z 18015KT 9999 BKN049 15/08 Q1014 RMK WIND 1800FT 17015KT
  • 140850Z 17015KT 9999 VCSH BKN049 16/08 Q1014 RMK WIND 1800FT 15013KT
  • 140820Z 17014KT 9999 BKN051 16/08 Q1014 RMK WIND 1800FT 16013KT
  • 140750Z 17014KT 9999 BKN051 14/07 Q1014 RMK WIND 1800FT 17015KT
  • 140720Z 16012KT 9999 SCT053 16/08 Q1014 RMK WIND 1800FT 16016KT
  • 140650Z 18015KT 9999 VCSH SCT049 14/07 Q1014 RMK WIND 1800FT 17014KT

TAF TAF ENNA
Valid from the 14 at 06:00 until the 15 at 06:00 UTC


140500Z 1406/1506 18009KT 9999 FEW030 BKN050
TEMPO 1406/1410 FEW040TCU BKN050
TEMPO 1410/1424 FEW030CB
TEMPO 1410/1417 SHRA
PROB30
TEMPO 1413/1416 TS
TEMPO 1500/1506 BKN012



MET'MAP, your aeronautical weather chart ! - Copyright ORBIFLY December 2007 - Disclaimer

ORBIFLY MET'MAP TEAM :

Programming & Development : Alexandra Zaïnal
Original concept : Baudouin d'Aumeries
Technical & hardware support : Manuel Goepfert
Assistance : Marc-Olivier Méhu




SOURCES & CREDITS :

   NOAA